Time;durP1;ratioP1;P1;durP2;ratioP2;P2;SDS_P1;SDS_P2;PMS_P1;PMS_P2;Temp;Humidity;BMP_temperature;BMP_pressure;BME280_temperature;BME280_humidity;BME280_pressure;Samples;Min_cycle;Max_cycle;Signal;HPM_P1;HPM_P2
2023/10/07 00:01:28;;;;;;;8.73;2.70;;;;;;;16.92;97.91;100844.09;5213564;28;20021;-72
2023/10/07 00:03:58;;;;;;;6.72;2.42;;;;;;;16.91;98.08;100847.66;5212896;28;20413;-72
2023/10/07 00:06:30;;;;;;;9.85;2.92;;;;;;;17.01;97.51;100848.84;5230753;28;20513;-72
2023/10/07 00:09:01;;;;;;;8.85;2.80;;;;;;;17.10;97.01;100872.09;5215386;28;20060;-72
2023/10/07 00:11:33;;;;;;;10.38;2.88;;;;;;;17.08;97.44;100864.28;5210250;28;20067;-72
2023/10/07 00:14:08;;;;;;;8.43;2.72;;;;;;;17.08;96.69;100869.56;5231165;28;20068;-72
2023/10/07 00:16:39;;;;;;;10.68;3.15;;;;;;;17.12;96.81;100868.44;5230858;28;20027;-72
2023/10/07 00:19:09;;;;;;;6.57;3.13;;;;;;;17.06;97.22;100874.06;5233316;28;20076;-73
2023/10/07 00:24:34;;;;;;;9.80;3.08;;;;;;;17.08;96.86;100872.19;5232679;28;20039;-72
2023/10/07 00:27:06;;;;;;;7.22;2.97;;;;;;;17.17;96.01;100863.72;5230159;28;20032;-73
2023/10/07 00:29:52;;;;;;;9.45;2.58;;;;;;;17.21;96.46;100869.69;5214839;28;20103;-72
2023/10/07 00:32:32;;;;;;;9.27;2.67;;;;;;;17.10;96.86;100872.09;5231054;28;20033;-73
2023/10/07 00:35:06;;;;;;;6.90;2.60;;;;;;;17.10;96.31;100856.25;5212301;28;20410;-72
2023/10/07 00:37:38;;;;;;;9.60;2.70;;;;;;;17.04;96.88;100859.25;5212936;28;20033;-72
2023/10/07 00:40:14;;;;;;;11.02;3.22;;;;;;;17.04;96.85;100853.97;5213970;28;20477;-73
2023/10/07 00:42:45;;;;;;;7.35;2.83;;;;;;;17.05;97.05;100863.59;5200105;28;20069;-72
2023/10/07 00:45:16;;;;;;;11.95;3.17;;;;;;;17.06;96.75;100852.06;5251626;22;20041;-78
2023/10/07 00:47:51;;;;;;;8.95;2.60;;;;;;;17.01;96.93;100857.63;5228711;28;20055;-76
2023/10/07 00:50:22;;;;;;;5.75;2.53;;;;;;;17.05;97.51;100851.25;5208230;28;20021;-75
2023/10/07 00:55:29;;;;;;;7.18;2.50;;;;;;;17.10;97.33;100850.94;5231203;28;20033;-74
2023/10/07 01:03:16;;;;;;;7.88;2.85;;;;;;;17.08;97.47;100860.75;5229696;28;20028;-75
2023/10/07 01:13:50;;;;;;;8.07;2.33;;;;;;;17.02;97.94;100854.06;5234051;28;20291;-76
2023/10/07 01:16:40;;;;;;;12.30;2.40;;;;;;;17.05;97.68;100858.31;5230904;28;20107;-76
2023/10/07 01:19:19;;;;;;;8.23;2.40;;;;;;;17.00;98.02;100850.63;5213184;28;20031;-76
2023/10/07 01:21:55;;;;;;;11.88;2.88;;;;;;;17.00;98.16;100852.44;5229814;28;20025;-75
2023/10/07 01:27:21;;;;;;;9.82;3.00;;;;;;;17.05;97.57;100838.03;5228975;28;20774;-75
2023/10/07 01:30:13;;;;;;;9.15;2.78;;;;;;;17.10;98.00;100840.38;5212855;28;20318;-73
2023/10/07 01:32:54;;;;;;;8.82;2.63;;;;;;;17.01;98.16;100839.13;5228589;28;20064;-76
2023/10/07 01:35:33;;;;;;;6.45;2.13;;;;;;;17.02;98.16;100832.06;5231575;28;20032;-72
2023/10/07 01:38:07;;;;;;;10.32;2.47;;;;;;;17.01;98.04;100828.56;5232119;28;20025;-74
2023/10/07 01:43:21;;;;;;;8.13;2.13;;;;;;;17.08;97.95;100823.78;5229068;28;20053;-76
2023/10/07 01:45:54;;;;;;;6.93;2.58;;;;;;;17.03;98.11;100824.06;5230913;28;20165;-74
2023/10/07 01:48:25;;;;;;;6.97;2.63;;;;;;;17.06;97.94;100817.75;5238048;28;20039;-72
2023/10/07 01:50:55;;;;;;;7.90;2.80;;;;;;;17.01;98.83;100833.00;5235133;28;20557;-75
2023/10/07 01:53:27;;;;;;;6.20;2.30;;;;;;;16.97;98.23;100826.22;5233561;28;20119;-72
2023/10/07 01:55:58;;;;;;;6.13;2.30;;;;;;;17.06;98.01;100820.38;5216059;28;20050;-76
2023/10/07 01:58:30;;;;;;;11.85;2.50;;;;;;;17.13;97.94;100827.88;5230107;28;20067;-75
2023/10/07 02:01:01;;;;;;;7.22;2.40;;;;;;;17.08;97.94;100829.06;5219105;28;20478;-76
2023/10/07 02:03:32;;;;;;;9.90;2.60;;;;;;;17.04;98.27;100836.34;5217386;28;20034;-76
2023/10/07 02:06:05;;;;;;;6.53;2.45;;;;;;;17.02;98.03;100821.50;5236313;28;20296;-75
2023/10/07 02:08:37;;;;;;;7.07;2.47;;;;;;;17.00;98.06;100815.47;5224718;28;20037;-76
2023/10/07 02:11:09;;;;;;;8.63;3.13;;;;;;;17.04;97.52;100824.91;5231769;28;20025;-75
2023/10/07 02:13:39;;;;;;;9.73;2.80;;;;;;;17.04;97.65;100816.97;5211900;28;20033;-76
2023/10/07 02:16:11;;;;;;;9.80;2.55;;;;;;;17.05;97.92;100821.31;5227600;28;20032;-76
2023/10/07 02:18:44;;;;;;;8.60;2.33;;;;;;;17.00;98.53;100821.59;5216505;28;20396;-76
2023/10/07 02:21:20;;;;;;;9.07;2.42;;;;;;;16.97;98.90;100828.84;5228634;28;20048;-76
2023/10/07 02:23:50;;;;;;;9.98;2.80;;;;;;;17.03;98.62;100825.84;5231907;28;20113;-76
2023/10/07 02:26:21;;;;;;;7.95;2.80;;;;;;;16.98;98.39;100822.63;5218410;28;20032;-76
2023/10/07 02:28:53;;;;;;;10.43;2.50;;;;;;;17.00;99.00;100820.75;5235268;28;20414;-72
2023/10/07 02:31:24;;;;;;;8.82;2.38;;;;;;;17.03;98.70;100818.78;5229737;28;20473;-76
2023/10/07 02:33:57;;;;;;;7.70;2.83;;;;;;;17.04;98.73;100817.84;5237014;28;20044;-75
2023/10/07 02:36:28;;;;;;;9.75;3.00;;;;;;;16.98;98.29;100815.53;5232510;28;20410;-75
2023/10/07 02:39:05;;;;;;;9.75;2.78;;;;;;;16.95;98.68;100820.19;5211806;28;20028;-72
2023/10/07 02:41:36;;;;;;;7.03;2.80;;;;;;;16.89;99.35;100821.38;5229148;28;20024;-75
2023/10/07 02:44:15;;;;;;;7.07;2.53;;;;;;;16.95;99.43;100821.00;5237584;28;20055;-76
2023/10/07 02:46:52;;;;;;;9.77;2.50;;;;;;;16.98;98.96;100820.00;5237605;28;20029;-75
2023/10/07 02:49:25;;;;;;;6.60;2.42;;;;;;;17.01;99.21;100819.81;5235862;28;20119;-75
2023/10/07 02:51:58;;;;;;;7.13;2.45;;;;;;;16.90;99.44;100819.56;5235170;28;20288;-75
2023/10/07 02:54:41;;;;;;;8.20;2.30;;;;;;;16.99;99.36;100811.97;5235606;28;20028;-76
2023/10/07 02:57:24;;;;;;;5.45;2.38;;;;;;;16.95;99.28;100806.97;5237497;28;20032;-73
2023/10/07 03:00:11;;;;;;;6.00;2.50;;;;;;;16.99;99.87;100819.06;5234041;28;20137;-76
2023/10/07 03:02:49;;;;;;;8.18;2.60;;;;;;;16.94;99.58;100815.84;5217260;28;20130;-75
2023/10/07 03:05:29;;;;;;;6.50;2.63;;;;;;;16.92;99.73;100813.28;5235693;28;20045;-76
2023/10/07 03:08:02;;;;;;;10.38;2.72;;;;;;;17.00;99.23;100818.09;5235842;28;20082;-73
2023/10/07 03:10:51;;;;;;;7.03;2.70;;;;;;;16.98;99.90;100809.44;5219554;28;20032;-74
2023/10/07 03:13:24;;;;;;;9.13;2.85;;;;;;;17.04;99.52;100803.78;5235086;28;20032;-72
2023/10/07 03:16:28;;;;;;;6.55;2.58;;;;;;;16.95;99.10;100801.69;5217949;28;20028;-75
2023/10/07 03:24:11;;;;;;;8.63;2.60;;;;;;;16.95;99.77;100793.78;5235558;28;20040;-76
2023/10/07 03:26:46;;;;;;;10.05;2.92;;;;;;;16.90;99.88;100795.81;5232344;28;20025;-75
2023/10/07 03:29:30;;;;;;;7.43;2.53;;;;;;;16.90;99.64;100788.75;5238282;28;20503;-75
2023/10/07 03:32:00;;;;;;;6.05;2.20;;;;;;;16.86;100.00;100792.50;5234890;28;20043;-74
2023/10/07 03:34:31;;;;;;;6.80;2.65;;;;;;;16.92;99.65;100789.50;5235976;28;20021;-74
2023/10/07 03:40:04;;;;;;;7.13;2.33;;;;;;;16.88;99.75;100787.13;5224291;28;20021;-76
2023/10/07 03:42:37;;;;;;;7.97;2.50;;;;;;;16.89;100.00;100788.81;5227865;28;20069;-72
2023/10/07 03:45:14;;;;;;;7.47;2.40;;;;;;;16.90;99.72;100785.25;5218312;28;20068;-75
2023/10/07 03:47:46;;;;;;;9.32;3.05;;;;;;;16.83;100.00;100783.91;5219505;28;20096;-76
2023/10/07 03:50:34;;;;;;;9.40;2.65;;;;;;;16.89;99.70;100773.84;5230303;28;20056;-75
2023/10/07 03:53:05;;;;;;;7.13;2.58;;;;;;;16.89;100.00;100765.94;5215507;28;20051;-75
2023/10/07 03:55:40;;;;;;;9.93;2.72;;;;;;;16.87;99.87;100761.66;5234974;28;20021;-75
2023/10/07 03:58:19;;;;;;;6.10;2.63;;;;;;;16.79;100.00;100769.19;5231735;28;20040;-75
2023/10/07 04:00:50;;;;;;;7.25;2.50;;;;;;;16.77;100.00;100767.56;5230292;28;20365;-75
2023/10/07 04:03:23;;;;;;;7.00;2.47;;;;;;;16.72;100.00;100759.91;5230179;28;20064;-76
2023/10/07 04:05:54;;;;;;;10.15;2.30;;;;;;;16.80;99.71;100749.78;5229537;28;20064;-75
2023/10/07 04:08:24;;;;;;;10.63;2.67;;;;;;;16.79;100.00;100751.53;5232760;28;20056;-72
2023/10/07 04:10:55;;;;;;;4.88;2.38;;;;;;;16.83;99.90;100760.16;5213154;28;20090;-76
2023/10/07 04:13:25;;;;;;;5.88;2.15;;;;;;;16.85;100.00;100758.25;5230997;28;20119;-71
2023/10/07 04:15:57;;;;;;;7.22;2.40;;;;;;;16.74;99.49;100767.75;5230809;28;20029;-75
2023/10/07 04:18:36;;;;;;;7.47;2.50;;;;;;;16.81;99.51;100764.66;5235891;28;20029;-76
2023/10/07 04:21:07;;;;;;;10.00;2.78;;;;;;;16.77;100.00;100771.06;5228876;28;20029;-75
2023/10/07 04:23:43;;;;;;;7.65;2.63;;;;;;;16.75;100.00;100759.72;5235567;28;20035;-76
2023/10/07 04:26:19;;;;;;;8.13;2.70;;;;;;;16.77;100.00;100768.44;5234712;28;20024;-75
2023/10/07 04:28:51;;;;;;;7.40;2.85;;;;;;;16.53;100.00;100771.63;5211826;28;20033;-75
2023/10/07 04:31:29;;;;;;;6.65;2.50;;;;;;;16.52;100.00;100769.91;5233231;28;20035;-75
2023/10/07 04:34:02;;;;;;;6.75;2.55;;;;;;;16.45;100.00;100776.47;5216276;28;20063;-75
2023/10/07 04:36:33;;;;;;;9.63;2.92;;;;;;;16.38;100.00;100770.69;5234445;28;20024;-75
2023/10/07 04:39:16;;;;;;;10.77;3.20;;;;;;;16.38;100.00;100780.41;5232911;28;20146;-75
2023/10/07 04:41:56;;;;;;;9.85;2.97;;;;;;;16.35;100.00;100773.50;5232672;28;20043;-75
2023/10/07 04:45:16;;;;;;;6.07;2.80;;;;;;;16.35;100.00;100784.03;5233770;28;20442;-76
2023/10/07 04:47:35;;;;;;;5.97;2.75;;;;;;;16.35;100.00;100789.31;5234896;28;20028;-75
2023/10/07 04:52:50;;;;;;;9.68;2.95;;;;;;;16.33;100.00;100783.25;5233071;28;20086;-75
2023/10/07 04:55:25;;;;;;;7.50;3.08;;;;;;;16.29;100.00;100786.13;5234111;28;20493;-75
2023/10/07 05:03:01;;;;;;;5.88;3.40;;;;;;;16.11;100.00;100777.47;5233088;28;20033;-76
2023/10/07 05:05:35;;;;;;;7.75;3.30;;;;;;;15.99;100.00;100775.50;5216128;28;20079;-77
2023/10/07 05:08:11;;;;;;;7.80;3.20;;;;;;;15.98;100.00;100779.06;5229964;28;20027;-77
2023/10/07 05:10:41;;;;;;;8.27;3.97;;;;;;;16.08;100.00;100777.59;5230248;28;20029;-75
2023/10/07 05:13:11;;;;;;;7.78;3.55;;;;;;;16.04;100.00;100785.78;5232391;28;20024;-75
2023/10/07 05:15:42;;;;;;;7.68;3.72;;;;;;;15.95;100.00;100787.16;5233355;28;20488;-76
2023/10/07 05:18:16;;;;;;;6.90;3.58;;;;;;;15.90;100.00;100788.31;5230980;28;20117;-76
2023/10/07 05:20:50;;;;;;;7.10;3.92;;;;;;;15.93;100.00;100804.84;5218473;28;20108;-75
2023/10/07 05:23:22;;;;;;;9.40;3.63;;;;;;;15.87;100.00;100804.31;5230983;28;20024;-76
2023/10/07 05:25:52;;;;;;;8.98;4.20;;;;;;;15.81;100.00;100794.06;5228117;28;20392;-76
2023/10/07 05:28:25;;;;;;;9.50;4.55;;;;;;;15.90;100.00;100799.69;5233417;28;20115;-76
2023/10/07 05:30:57;;;;;;;10.25;4.80;;;;;;;15.83;100.00;100800.09;5228916;28;20162;-74
2023/10/07 05:33:28;;;;;;;9.48;4.20;;;;;;;15.86;100.00;100798.16;5214748;28;20017;-75
2023/10/07 05:36:20;;;;;;;10.07;4.57;;;;;;;15.90;100.00;100793.59;5227633;28;20497;-76
2023/10/07 05:38:51;;;;;;;8.60;4.45;;;;;;;15.89;100.00;100787.44;5229662;28;20028;-75
2023/10/07 05:41:25;;;;;;;9.52;4.65;;;;;;;15.90;100.00;100786.50;5227453;28;20025;-72
2023/10/07 05:43:55;;;;;;;7.95;4.70;;;;;;;15.95;100.00;100789.78;5226256;28;20181;-76
2023/10/07 05:46:25;;;;;;;13.55;5.07;;;;;;;15.87;100.00;100791.97;5229588;28;20500;-73
2023/10/07 05:48:58;;;;;;;12.30;4.97;;;;;;;15.94;100.00;100790.72;5210719;28;20025;-76
2023/10/07 05:51:29;;;;;;;10.63;5.05;;;;;;;15.91;100.00;100790.03;5212407;28;20086;-75
2023/10/07 05:53:59;;;;;;;9.88;5.10;;;;;;;16.01;100.00;100791.25;5229178;28;20029;-76
2023/10/07 05:56:30;;;;;;;7.43;5.18;;;;;;;16.01;100.00;100785.97;5237162;28;20024;-75
2023/10/07 05:59:01;;;;;;;11.40;5.10;;;;;;;16.01;100.00;100778.06;5218898;28;20056;-73
2023/10/07 06:01:33;;;;;;;10.77;5.50;;;;;;;16.10;100.00;100783.69;5217952;28;20545;-75
2023/10/07 06:04:04;;;;;;;11.48;5.85;;;;;;;16.05;100.00;100788.31;5234299;28;20024;-75
2023/10/07 06:06:35;;;;;;;12.80;6.05;;;;;;;16.04;100.00;100781.34;5235928;28;20021;-76
2023/10/07 06:09:10;;;;;;;8.35;5.25;;;;;;;16.21;100.00;100791.00;5229680;28;20119;-75
2023/10/07 06:11:42;;;;;;;8.90;5.40;;;;;;;16.23;100.00;100786.47;5216640;28;20020;-75
2023/10/07 06:14:12;;;;;;;12.38;6.13;;;;;;;16.27;100.00;100794.16;5233449;28;20052;-75
2023/10/07 06:16:42;;;;;;;10.68;5.57;;;;;;;16.22;100.00;100790.06;5232984;28;20329;-75
2023/10/07 06:19:13;;;;;;;11.25;5.95;;;;;;;16.31;100.00;100789.53;5231646;28;20519;-75
2023/10/07 06:21:52;;;;;;;9.60;5.53;;;;;;;16.29;100.00;100791.41;5234748;28;20505;-75
2023/10/07 06:24:26;;;;;;;10.65;5.45;;;;;;;16.32;100.00;100789.47;5235657;28;20130;-76
2023/10/07 06:26:58;;;;;;;9.05;5.78;;;;;;;16.27;100.00;100790.66;5213725;28;20060;-75
2023/10/07 06:29:31;;;;;;;13.23;5.68;;;;;;;16.28;100.00;100802.91;5222332;28;20025;-76
2023/10/07 06:34:56;;;;;;;13.27;6.10;;;;;;;16.27;100.00;100807.34;5230592;28;20429;-76
2023/10/07 06:37:29;;;;;;;9.45;5.15;;;;;;;16.29;100.00;100801.97;5235329;28;20247;-76
2023/10/07 06:40:12;;;;;;;9.02;5.53;;;;;;;16.22;100.00;100809.34;5215254;28;20051;-76
2023/10/07 06:42:44;;;;;;;9.68;5.78;;;;;;;16.35;100.00;100805.16;5215016;28;20021;-76
2023/10/07 06:45:17;;;;;;;11.38;5.85;;;;;;;16.32;100.00;100821.13;5250632;22;20456;-72
2023/10/07 06:47:48;;;;;;;12.60;5.60;;;;;;;16.42;100.00;100822.31;5216441;28;20031;-72
2023/10/07 06:50:27;;;;;;;7.45;4.72;;;;;;;16.40;100.00;100826.00;5215818;28;20020;-73
2023/10/07 06:52:57;;;;;;;11.65;5.30;;;;;;;16.34;100.00;100827.16;5230530;28;20036;-72
2023/10/07 06:55:32;;;;;;;11.02;5.45;;;;;;;16.41;100.00;100828.53;5230571;28;20389;-72
2023/10/07 06:58:04;;;;;;;11.82;5.60;;;;;;;16.39;100.00;100825.13;5215490;28;20485;-72
2023/10/07 07:00:47;;;;;;;9.88;5.18;;;;;;;16.38;100.00;100823.44;5234216;28;20052;-72
2023/10/07 07:03:18;;;;;;;11.77;5.68;;;;;;;16.32;100.00;100825.53;5210838;28;20042;-72
2023/10/07 07:05:48;;;;;;;11.82;6.18;;;;;;;16.40;100.00;100816.28;5229637;28;20024;-72
2023/10/07 07:08:24;;;;;;;10.23;5.88;;;;;;;16.36;100.00;100809.47;5214009;28;20037;-75
2023/10/07 07:11:09;;;;;;;10.82;6.20;;;;;;;16.40;100.00;100805.72;5226548;28;20180;-72
2023/10/07 07:13:43;;;;;;;10.80;6.10;;;;;;;16.48;100.00;100813.22;5205940;28;20050;-72
2023/10/07 07:16:14;;;;;;;13.63;6.22;;;;;;;16.51;100.00;100819.19;5222929;28;20028;-73
2023/10/07 07:18:44;;;;;;;11.07;6.13;;;;;;;16.50;100.00;100828.03;5230789;28;20033;-73
2023/10/07 07:21:31;;;;;;;11.13;6.75;;;;;;;16.55;100.00;100833.91;5231108;28;20036;-72
2023/10/07 07:24:03;;;;;;;12.23;6.57;;;;;;;16.60;100.00;100837.16;5211808;28;20476;-71
2023/10/07 07:26:33;;;;;;;10.73;6.43;;;;;;;16.62;100.00;100831.78;5233252;28;20497;-72
2023/10/07 07:29:04;;;;;;;11.27;6.70;;;;;;;16.63;100.00;100829.06;5229631;28;20041;-72
2023/10/07 07:31:35;;;;;;;12.50;6.85;;;;;;;16.60;100.00;100831.88;5200744;28;20283;-72
2023/10/07 07:34:20;;;;;;;15.00;7.10;;;;;;;16.64;100.00;100841.34;5231758;28;20115;-72
2023/10/07 07:37:00;;;;;;;13.50;6.90;;;;;;;16.61;100.00;100836.22;5213862;28;20031;-72
2023/10/07 07:39:31;;;;;;;12.15;6.80;;;;;;;16.72;100.00;100825.91;5207059;28;20035;-72
2023/10/07 07:42:21;;;;;;;13.77;7.72;;;;;;;16.65;100.00;100836.88;5217316;28;20510;-72
2023/10/07 07:44:58;;;;;;;12.90;7.07;;;;;;;16.78;100.00;100839.59;5215080;28;20040;-72
2023/10/07 07:47:32;;;;;;;13.60;7.75;;;;;;;16.78;100.00;100836.97;5214405;28;20020;-72
2023/10/07 07:50:02;;;;;;;13.45;7.05;;;;;;;16.82;100.00;100837.66;5217594;28;20214;-72
2023/10/07 07:52:32;;;;;;;13.00;7.32;;;;;;;16.85;100.00;100834.84;5211946;28;20424;-72
2023/10/07 07:55:05;;;;;;;11.85;7.78;;;;;;;16.90;100.00;100845.97;5207374;28;20077;-71
2023/10/07 07:57:35;;;;;;;13.02;7.57;;;;;;;17.02;100.00;100847.91;5210614;28;20025;-72
2023/10/07 08:00:09;;;;;;;16.17;8.30;;;;;;;17.01;100.00;100848.84;5207780;28;20094;-72
2023/10/07 08:02:41;;;;;;;16.10;7.90;;;;;;;17.11;100.00;100839.47;5221500;28;20028;-72
2023/10/07 08:05:13;;;;;;;13.98;8.05;;;;;;;16.94;100.00;100844.88;5229668;28;20522;-72
2023/10/07 08:07:43;;;;;;;17.38;8.95;;;;;;;16.92;100.00;100838.81;5220390;28;20078;-72
2023/10/07 08:10:16;;;;;;;16.02;9.27;;;;;;;16.84;100.00;100826.03;5202635;28;20410;-73
2023/10/07 08:12:50;;;;;;;19.08;9.25;;;;;;;16.89;100.00;100826.66;5233181;28;20036;-74
2023/10/07 08:15:23;;;;;;;20.80;9.13;;;;;;;16.91;100.00;100824.78;5231924;28;20111;-73
2023/10/07 08:17:56;;;;;;;16.17;8.73;;;;;;;17.09;100.00;100830.78;5220481;28;20028;-72
2023/10/07 08:20:37;;;;;;;22.00;9.57;;;;;;;17.12;100.00;100834.09;5212590;28;20039;-72
2023/10/07 08:23:13;;;;;;;19.30;9.50;;;;;;;17.15;100.00;100830.44;5233515;28;20067;-72
2023/10/07 08:25:46;;;;;;;15.75;9.20;;;;;;;17.15;100.00;100830.44;5231368;28;20721;-72
2023/10/07 08:28:22;;;;;;;14.77;9.15;;;;;;;17.24;100.00;100821.94;5215446;28;20120;-72
2023/10/07 08:30:53;;;;;;;17.38;9.13;;;;;;;17.28;100.00;100808.47;5206867;28;20098;-72
2023/10/07 08:33:24;;;;;;;19.45;9.57;;;;;;;17.35;100.00;100804.53;5214569;28;20463;-73
2023/10/07 08:35:55;;;;;;;16.67;9.48;;;;;;;17.29;100.00;100806.69;5231291;28;20032;-72
2023/10/07 08:38:37;;;;;;;17.33;9.43;;;;;;;17.39;100.00;100805.22;5231006;28;20032;-72
2023/10/07 08:41:10;;;;;;;15.63;8.98;;;;;;;17.42;100.00;100823.53;5202736;28;20117;-72
2023/10/07 08:44:03;;;;;;;19.90;9.70;;;;;;;17.40;100.00;100807.78;5214937;28;20036;-74
2023/10/07 08:46:39;;;;;;;17.23;9.07;;;;;;;17.34;100.00;100823.16;5222619;28;20045;-73
2023/10/07 08:49:15;;;;;;;19.70;9.80;;;;;;;17.31;100.00;100815.38;5229598;28;20035;-74
2023/10/07 08:51:45;;;;;;;15.52;9.45;;;;;;;17.28;100.00;100807.66;5229981;28;20032;-74
2023/10/07 08:54:19;;;;;;;16.13;8.98;;;;;;;17.27;100.00;100816.47;5214590;28;20028;-74
2023/10/07 08:56:54;;;;;;;21.10;9.85;;;;;;;17.26;100.00;100813.00;5230679;28;20043;-73
2023/10/07 08:59:30;;;;;;;17.80;9.13;;;;;;;17.23;100.00;100814.97;5225364;28;20029;-72
2023/10/07 09:02:00;;;;;;;16.92;9.88;;;;;;;17.21;100.00;100825.66;5229537;28;20036;-73
2023/10/07 09:04:31;;;;;;;16.85;9.75;;;;;;;17.23;100.00;100820.25;5229695;28;20020;-73
2023/10/07 09:07:08;;;;;;;16.48;9.02;;;;;;;17.17;100.00;100812.69;5197835;28;20037;-73
2023/10/07 09:09:39;;;;;;;14.00;8.73;;;;;;;17.19;100.00;100813.44;5198346;28;20028;-74
2023/10/07 09:12:29;;;;;;;19.23;9.52;;;;;;;17.17;100.00;100821.47;5224339;28;20032;-74
2023/10/07 09:15:07;;;;;;;18.30;9.65;;;;;;;17.05;100.00;100822.19;5227014;28;20057;-73
2023/10/07 09:17:41;;;;;;;22.15;10.00;;;;;;;17.09;100.00;100817.56;5213422;28;20045;-73
2023/10/07 09:20:18;;;;;;;16.15;9.00;;;;;;;17.04;100.00;100806.41;5209858;28;20535;-74
2023/10/07 09:22:53;;;;;;;17.83;9.70;;;;;;;17.10;100.00;100803.41;5228726;28;20040;-74
2023/10/07 09:25:33;;;;;;;;;;;;;;;17.05;100.00;100805.47;5231563;28;20032;-73
2023/10/07 09:28:07;;;;;;;15.25;8.70;;;;;;;17.18;100.00;100793.25;5216932;28;19986;-73
2023/10/07 09:33:21;;;;;;;28.27;10.18;;;;;;;17.07;100.00;100806.25;5233379;28;20582;-74
2023/10/07 09:38:43;;;;;;;15.63;8.60;;;;;;;17.18;100.00;100785.34;5232949;28;20249;-73
2023/10/07 09:43:57;;;;;;;16.52;9.18;;;;;;;17.40;100.00;100791.94;5219199;28;20045;-73
2023/10/07 09:46:34;;;;;;;16.92;8.88;;;;;;;17.29;100.00;100788.22;5225895;28;20093;-71
2023/10/07 09:49:06;;;;;;;14.43;8.27;;;;;;;17.41;100.00;100790.13;5226765;28;20052;-71
2023/10/07 09:51:44;;;;;;;16.50;8.30;;;;;;;17.43;100.00;100781.19;5232832;28;20020;-72
2023/10/07 09:54:30;;;;;;;13.93;7.47;;;;;;;17.56;100.00;100783.91;5215767;28;20050;-71
2023/10/07 09:57:27;;;;;;;14.60;8.23;;;;;;;17.64;100.00;100779.88;5231833;28;20409;-71
2023/10/07 10:03:28;;;;;;;14.65;8.00;;;;;;;17.78;100.00;100769.28;5230451;28;20067;-71
2023/10/07 10:06:16;;;;;;;13.45;7.65;;;;;;;18.05;100.00;100764.09;5229008;28;20382;-71
2023/10/07 10:08:57;;;;;;;14.80;7.90;;;;;;;17.98;100.00;100757.50;5209030;28;20494;-71
2023/10/07 10:11:44;;;;;;;15.90;8.00;;;;;;;18.03;100.00;100765.97;5227649;28;20485;-70
2023/10/07 10:16:52;;;;;;;19.85;7.97;;;;;;;18.20;100.00;100774.53;5229890;28;20242;-70
2023/10/07 10:19:47;;;;;;;14.93;7.85;;;;;;;18.26;100.00;100757.41;5214291;28;20060;-71
2023/10/07 10:22:22;;;;;;;16.45;7.32;;;;;;;18.21;100.00;100770.09;5216327;28;20032;-71
2023/10/07 10:24:57;;;;;;;13.77;7.70;;;;;;;18.32;100.00;100765.84;5214492;28;20090;-71
2023/10/07 10:27:27;;;;;;;14.32;7.22;;;;;;;18.26;100.00;100775.94;5209314;28;20021;-71
2023/10/07 10:30:04;;;;;;;16.83;7.45;;;;;;;18.19;100.00;100782.59;5230117;28;20110;-71
2023/10/07 10:32:36;;;;;;;14.07;7.15;;;;;;;18.25;100.00;100784.81;5211542;28;20460;-70
2023/10/07 10:35:07;;;;;;;16.42;7.07;;;;;;;18.30;100.00;100791.56;5226121;28;20302;-71
2023/10/07 10:37:37;;;;;;;14.35;7.68;;;;;;;18.24;100.00;100783.13;5231248;28;20081;-71
2023/10/07 10:40:14;;;;;;;16.58;7.47;;;;;;;18.32;100.00;100780.91;5231993;28;20041;-71
2023/10/07 10:42:49;;;;;;;15.40;7.18;;;;;;;18.26;100.00;100789.16;5222415;28;20024;-71
2023/10/07 10:45:21;;;;;;;12.97;7.10;;;;;;;18.41;100.00;100781.16;5227864;28;20119;-70
2023/10/07 10:47:53;;;;;;;12.85;7.25;;;;;;;18.37;100.00;100792.03;5214129;28;20490;-71
2023/10/07 10:50:24;;;;;;;13.57;7.15;;;;;;;18.32;100.00;100794.13;5212481;28;20107;-70
2023/10/07 10:52:59;;;;;;;12.95;6.57;;;;;;;18.46;100.00;100781.69;5215510;28;20021;-71
2023/10/07 10:55:38;;;;;;;14.50;6.78;;;;;;;18.45;100.00;100780.00;5215502;28;20024;-71
2023/10/07 10:58:17;;;;;;;12.48;6.78;;;;;;;18.64;100.00;100780.50;5233368;28;20104;-71
2023/10/07 11:00:49;;;;;;;14.00;6.82;;;;;;;18.60;100.00;100768.41;5231159;28;20020;-70
2023/10/07 11:03:23;;;;;;;16.08;6.32;;;;;;;18.66;100.00;100768.00;5233234;28;20409;-71
2023/10/07 11:05:54;;;;;;;12.10;6.18;;;;;;;18.86;100.00;100765.75;5231950;28;20028;-71
2023/10/07 11:08:25;;;;;;;15.23;6.78;;;;;;;18.97;100.00;100757.91;5214362;28;20229;-70
2023/10/07 11:11:00;;;;;;;11.57;6.47;;;;;;;19.01;100.00;100759.44;5214864;28;20036;-72
2023/10/07 11:13:30;;;;;;;11.87;6.27;;;;;;;18.99;100.00;100755.19;5211713;28;20031;-71
2023/10/07 11:16:10;;;;;;;11.35;6.55;;;;;;;19.03;100.00;100768.13;5231098;28;20279;-71
2023/10/07 11:18:44;;;;;;;12.85;6.40;;;;;;;18.96;100.00;100761.53;5218019;28;20048;-71
2023/10/07 11:21:18;;;;;;;13.57;6.95;;;;;;;18.89;100.00;100764.69;5227389;28;20047;-72
2023/10/07 11:23:49;;;;;;;11.10;5.88;;;;;;;18.82;100.00;100771.34;5221469;28;20670;-70
2023/10/07 11:26:20;;;;;;;11.85;6.00;;;;;;;18.86;100.00;100775.50;5218333;28;20049;-71
2023/10/07 11:28:52;;;;;;;13.98;6.03;;;;;;;18.88;100.00;100763.84;5230159;28;20052;-71
2023/10/07 11:31:30;;;;;;;18.20;6.60;;;;;;;18.85;100.00;100763.19;5227553;28;20078;-71
2023/10/07 11:34:01;;;;;;;10.88;5.30;;;;;;;18.87;100.00;100766.59;5210300;28;20481;-71
2023/10/07 11:36:43;;;;;;;11.30;6.20;;;;;;;18.87;100.00;100770.09;5233149;28;20403;-71
2023/10/07 11:39:14;;;;;;;13.63;6.15;;;;;;;18.85;100.00;100777.31;5230831;28;20105;-71
2023/10/07 11:41:44;;;;;;;13.05;6.35;;;;;;;18.97;100.00;100776.47;5229226;28;20107;-71
2023/10/07 11:44:16;;;;;;;13.18;6.57;;;;;;;19.01;100.00;100770.03;5231974;28;20054;-71
2023/10/07 11:46:46;;;;;;;13.80;7.07;;;;;;;19.00;100.00;100768.34;5229438;28;20103;-71
2023/10/07 11:49:17;;;;;;;14.43;7.03;;;;;;;19.00;100.00;100767.47;5234657;28;20966;-71
2023/10/07 11:51:48;;;;;;;16.85;6.97;;;;;;;19.11;100.00;100757.84;5226643;28;20027;-71
2023/10/07 11:54:21;;;;;;;11.45;6.90;;;;;;;19.21;100.00;100766.91;5216139;28;20036;-71
2023/10/07 11:56:51;;;;;;;14.13;7.57;;;;;;;19.24;100.00;100761.41;5203882;28;20021;-71
2023/10/07 11:59:21;;;;;;;11.45;6.82;;;;;;;19.33;100.00;100758.16;5211768;28;20496;-72
2023/10/07 12:01:53;;;;;;;17.05;7.63;;;;;;;19.45;100.00;100754.63;5206840;28;20025;-71
2023/10/07 12:04:23;;;;;;;13.35;6.43;;;;;;;19.55;100.00;100763.66;5230127;28;20497;-71
2023/10/07 12:06:54;;;;;;;15.65;7.70;;;;;;;19.64;100.00;100751.56;5228484;28;20059;-71
2023/10/07 12:09:24;;;;;;;13.73;6.93;;;;;;;19.58;100.00;100755.47;5212424;28;20050;-70
2023/10/07 12:11:54;;;;;;;11.82;6.60;;;;;;;19.61;100.00;100755.25;5234134;28;20509;-71
2023/10/07 12:14:27;;;;;;;13.05;7.28;;;;;;;19.52;100.00;100760.34;5234480;28;20037;-71
2023/10/07 12:16:58;;;;;;;12.80;7.05;;;;;;;19.75;100.00;100759.63;5231414;28;20052;-71
2023/10/07 12:19:30;;;;;;;16.88;8.18;;;;;;;19.76;100.00;100764.81;5213016;28;20409;-71
2023/10/07 12:22:03;;;;;;;12.80;7.07;;;;;;;19.91;100.00;100758.44;5228859;28;20033;-71
2023/10/07 12:24:34;;;;;;;12.52;7.65;;;;;;;20.07;99.60;100761.72;5210927;28;20035;-71
2023/10/07 12:27:06;;;;;;;15.98;7.38;;;;;;;20.02;99.33;100761.22;5235132;28;20024;-71
2023/10/07 12:29:39;;;;;;;13.88;6.90;;;;;;;20.14;99.65;100756.81;5212060;28;20048;-71
2023/10/07 12:32:09;;;;;;;11.60;7.18;;;;;;;20.18;98.74;100775.09;5215458;28;20072;-71
2023/10/07 12:34:47;;;;;;;12.48;7.07;;;;;;;20.16;99.34;100763.69;5217774;28;20284;-71
2023/10/07 12:37:17;;;;;;;12.02;6.88;;;;;;;20.06;100.00;100772.44;5228468;28;20036;-71
2023/10/07 12:39:49;;;;;;;14.98;7.50;;;;;;;20.06;100.00;100765.34;5228779;28;20056;-70
2023/10/07 12:42:19;;;;;;;10.30;7.07;;;;;;;20.11;100.00;100771.16;5212343;28;20409;-71
2023/10/07 12:44:50;;;;;;;12.63;6.78;;;;;;;19.99;100.00;100771.16;5233634;28;20036;-71